Flight Track Log - Related Links

Times and Time Zones

All times are in EDT time to prevent confusion due to time zone crossing. See the UAL5961 flight status page for this flight to view local times or setup timezone preferences in your user account.

Time Position Orientation Groundspeed Altitude Reporting Facility
EDT Latitude Longitude Course Direction KTS MPH feet Rate Location/Type
Fri 07:16:39 PM 36.1167 -86.6833 180° South 162 186 1,300  Level Nashville TRACON
Fri 07:16:57 PM 36.1000 -86.6833 180° South 176 203 2,000 2,400 Climbing Nashville TRACON
Fri 07:18:04 PM 36.0833 -86.6333 112° Southeast 192 221 4,700 2,173 Climbing Nashville TRACON
Fri 07:19:04 PM 36.1000 -86.5667 73° East 204 235 6,600 1,950 Climbing Nashville TRACON
Fri 07:20:44 PM 36.1314 -86.4150 76° East 285 328 9,900 2,012 Climbing Memphis Center
Fri 07:21:45 PM 36.1494 -86.3267 76° East 275 316 12,000 1,700 Climbing Memphis Center
Fri 07:22:44 PM 36.1692 -86.2306 76° East 280 322 13,300 1,200 Climbing Memphis Center
Fri 07:23:45 PM 36.1906 -86.1214 76° East 306 352 14,400 1,091 Climbing Memphis Center
Fri 07:24:45 PM 36.2283 -86.0089 67° East 336 387 15,500 1,059 Climbing Memphis Center
Fri 07:25:44 PM 36.2728 -85.9086 61° Northeast 348 400 16,500 1,178 Climbing Memphis Center
Fri 07:27:28 PM 36.3628 -85.7111 60° Northeast 386 444 18,700 1,229 Climbing Indianapolis Center
Fri 07:28:30 PM 36.4186 -85.5944 59° Northeast 390 449 19,900 1,317 Climbing Indianapolis Center
Fri 07:29:31 PM 36.4753 -85.4764 59° Northeast 394 453 21,400 1,463 Climbing Indianapolis Center
Fri 07:30:33 PM 36.5292 -85.3592 60° Northeast 392 451 22,900 1,317 Climbing Indianapolis Center
Fri 07:31:34 PM 36.5972 -85.2183 59° Northeast 394 453 24,100 1,122 Climbing Indianapolis Center
Fri 07:32:36 PM 36.6414 -85.0900 67° East 399 459 25,200 1,016 Climbing Indianapolis Center
Fri 07:33:38 PM 36.6808 -84.9608 69° East 397 457 26,200 878 Climbing Indianapolis Center
Fri 07:34:39 PM 36.7208 -84.8294 69° East 402 463 27,000 390 Climbing Indianapolis Center
Fri 07:35:41 PM 36.7622 -84.6933 69° East 418 481 27,000  Level Indianapolis Center
Fri 07:36:42 PM 36.8050 -84.5508 69° East 435 501 27,000  Level Indianapolis Center
Fri 07:37:44 PM 36.8514 -84.3994 69° East 449 517 27,000  Level Indianapolis Center
Fri 07:38:45 PM 36.8958 -84.2506 69° East 455 524 27,000  Level Indianapolis Center
Fri 07:39:47 PM 36.9408 -84.0997 69° East 463 533 27,000  Level Indianapolis Center
Fri 07:40:48 PM 36.9867 -83.9478 69° East 464 534 27,000  Level Indianapolis Center
Fri 07:41:50 PM 37.0317 -83.7947 70° East 466 536 27,000  Level Indianapolis Center
Fri 07:42:51 PM 37.0856 -83.6172 69° East 468 539 27,000  Level Indianapolis Center
Fri 07:43:53 PM 37.1292 -83.4631 70° East 468 539 27,000  Level Indianapolis Center
Fri 07:44:54 PM 37.1739 -83.3103 70° East 465 535 27,000  Level Indianapolis Center
Fri 07:45:56 PM 37.2183 -83.1558 70° East 466 536 27,000  Level Indianapolis Center
Fri 07:46:57 PM 37.2622 -83.0011 70° East 465 535 27,000  Level Indianapolis Center
Fri 07:47:59 PM 37.3069 -82.8464 70° East 466 536 27,000  Level Indianapolis Center
Fri 07:49:00 PM 37.3508 -82.6914 70° East 468 539 27,000  Level Indianapolis Center
Fri 07:50:02 PM 37.3953 -82.5375 70° East 466 536 27,000  Level Indianapolis Center
Fri 07:51:03 PM 37.4383 -82.3833 71° East 464 534 27,000  Level Indianapolis Center
Fri 07:52:05 PM 37.4797 -82.2300 71° East 461 531 27,000  Level Indianapolis Center
Fri 07:53:06 PM 37.5306 -82.0519 70° East 461 531 27,000  Level Indianapolis Center
Fri 07:54:08 PM 37.5728 -81.8964 71° East 466 536 27,000  Level Indianapolis Center
Fri 07:55:09 PM 37.6158 -81.7425 71° East 466 536 27,000  Level Indianapolis Center
Fri 07:56:11 PM 37.6558 -81.5869 72° East 466 536 27,000  Level Indianapolis Center
Fri 07:57:12 PM 37.7014 -81.4219 71° East 471 542 27,000  Level Indianapolis Center
Fri 07:58:11 PM 37.7403 -81.2722 72° East 469 540 27,000  Level Washington Center
Fri 07:59:12 PM 37.7853 -81.1128 70° East 459 528 27,000  Level Washington Center
Fri 08:00:12 PM 37.8358 -80.9639 67° East 459 528 27,000  Level Washington Center
Fri 08:01:13 PM 37.8858 -80.8253 65° Northeast 466 536 27,000  Level Washington Center
Fri 08:02:11 PM 37.9444 -80.6767 63° Northeast 466 536 27,000  Level Washington Center
Fri 08:03:11 PM 38.0250 -80.5450 52° Northeast 466 536 27,000  Level Washington Center
Fri 08:04:12 PM 38.1033 -80.4183 52° Northeast 466 536 27,000 -148 Level Washington Center
Fri 08:05:13 PM 38.1881 -80.2758 53° Northeast 461 531 26,700 -545 Descending Washington Center
Fri 08:06:13 PM 38.2619 -80.1483 54° Northeast 456 525 25,900 -814 Descending Washington Center
Fri 08:07:11 PM 38.3314 -80.0200 55° Northeast 445 512 25,100 -661 Descending Washington Center
Fri 08:08:11 PM 38.3986 -79.8917 56° Northeast 435 501 24,600 -496 Descending Washington Center
Fri 08:09:12 PM 38.4536 -79.7489 64° Northeast 435 501 24,100 -295 Descending Washington Center
Fri 08:10:13 PM 38.4811 -79.6153 75° East 429 494 24,000 -50 Descending Washington Center
Fri 08:11:12 PM 38.5172 -79.4686 72° East 429 494 24,000 -550 Level Washington Center
Fri 08:12:13 PM 38.5444 -79.3319 76° East 419 482 22,900 -1,339 Descending Washington Center
Fri 08:13:13 PM 38.5656 -79.1869 79° East 392 451 21,300 -1,576 Descending Washington Center
Fri 08:14:11 PM 38.5883 -79.0553 77° East 387 445 19,800 -1,664 Descending Washington Center
Fri 08:15:12 PM 38.6086 -78.9286 78° East 375 432 18,000 -1,623 Descending Washington Center
Fri 08:16:13 PM 38.6306 -78.8075 77° East 365 420 16,500 -1,736 Descending Washington Center
Fri 08:17:13 PM 38.6567 -78.6889 74° East 353 406 14,500 -1,932 Descending Washington Center
Fri 08:18:11 PM 38.6844 -78.5783 72° East 333 383 12,700 -1,678 Descending Washington Center
Fri 08:19:11 PM 38.7100 -78.4731 73° East 321 369 11,200 -1,240 Descending Washington Center
Fri 08:20:12 PM 38.7597 -78.3950 51° Northeast 294 338 10,200 -992 Descending Washington Center
Fri 08:21:12 PM 38.8375 -78.3686 15° North 268 308 9,200 -694 Descending Washington Center
Fri 08:22:13 PM 38.9153 -78.3450 13° North 268 308 8,800 -807 Descending Washington Center
Fri 08:23:11 PM 38.9422 -78.2553 69° East 242 278 7,600 -1,160 Descending Washington Center
Fri 08:24:12 PM 38.9608 -78.1650 75° East 242 278 6,500 -1,033 Descending Washington Center
Fri 08:25:13 PM 38.9772 -78.0803 76° East 242 278 5,500 -807 Descending Washington Center
Fri 08:26:11 PM 38.9936 -77.9981 76° East 242 278 4,900 -303 Descending Washington Center
Fri 08:27:12 PM 39.0097 -77.9131 76° East 242 278 4,900 -207 Level Washington Center
Fri 08:29:05 PM 39.0333 -77.7667 78° East 172 198 4,300 -347 Descending Potomac TRACON
Fri 08:30:05 PM 39.0167 -77.7167 113° Southeast 165 190 3,900 -500 Descending Potomac TRACON
Fri 08:31:05 PM 39.0000 -77.6667 113° Southeast 163 188 3,300 -750 Descending Potomac TRACON
Fri 08:32:05 PM 38.9833 -77.6000 108° East 163 188 2,400 -850 Descending Potomac TRACON
Fri 08:33:05 PM 38.9667 -77.5667 123° Southeast 133 153 1,600 -744 Descending Potomac TRACON
Fri 08:34:06 PM 38.9500 -77.5167 113° Southeast 122 140 900 -689 Descending Potomac TRACON
Fri 08:36:00 PM 38.9474 -77.4599 165° South  Level Estimated
Fri 08:43:00 PM 38.9474 -77.4599 165° South  Level Estimated
Fri 08:44:00 PM 38.9474 -77.4599 165° South  Level Estimated
Fri 08:45:00 PM 38.9474 -77.4599 165° South  Level Estimated

Login

Don't have an account? Register now (free) for customized features, flight alerts, and more!